Аэропорт: Нижневартовск. Нижневартовск

ICAO: USNN

METAR:
2021-07-28 13:00:00
USNN 281300Z VRB01MPS 9999 -TSRA BKN040CB 16/15 Q1003 R21/290255 TEMPO 4000 -TSRA BKN016CB RMK QFE748
METAR:
2021-07-28 10:50:00
TAF USNN 281050Z 2812/2912 26003G08MPS 9999 SCT020CB TEMPO 2812/2815 VRB17MPS -TSRA SQ FEW004 BKN017CB TEMPO 2815/2824 VRB01MPS